Terminal Aerodrome Forecast
Issued by NWS

Home | Current Version | Previous Version | Text Only | Print | Product List | Glossary On
Versions: 1 2 3 4 5 6 7 8 9 10 11 12 13 14 15 16 17
000
FTUS41 KBGM 280500
TAFITH
TAF
KITH 280533Z 2806/2906 15005KT P6SM -SHRA SCT022 OVC040
      TEMPO 2808/2812 5SM -SHRA BR OVC022
     FM281200 23008KT 5SM -SHRA BR OVC015
     FM281500 32015KT 5SM -SHRA BR OVC015
     FM290000 30008KT P6SM BKN035=

USA.gov is the U.S. government's official web portal to all federal, state and local government web resources and services.